Time;durP1;ratioP1;P1;durP2;ratioP2;P2;SDS_P1;SDS_P2;PMS_P1;PMS_P2;Temp;Humidity;BMP_temperature;BMP_pressure;BME280_temperature;BME280_humidity;BME280_pressure;Samples;Min_cycle;Max_cycle;Signal;HPM_P1;HPM_P2
2023/04/07 00:01:00;;;;;;;15.80;7.50;;;;;;;6.67;69.11;99427.63;82078;1294;3011495;-68
2023/04/07 00:03:29;;;;;;;16.60;7.50;;;;;;;6.70;68.64;99433.03;80803;1295;3051233;-68
2023/04/07 00:05:56;;;;;;;9.30;4.80;;;;;;;6.76;68.23;99427.73;82059;1295;3013566;-69
2023/04/07 00:08:22;;;;;;;10.10;5.20;;;;;;;6.61;66.09;99427.89;82070;1294;3011338;-68
2023/04/07 00:10:50;;;;;;;15.50;7.40;;;;;;;6.54;66.51;99432.89;80782;1301;3025946;-68
2023/04/07 00:13:16;;;;;;;11.00;6.10;;;;;;;6.61;66.70;99425.79;80447;1296;3012940;-71
2023/04/07 00:15:43;;;;;;;16.90;7.70;;;;;;;6.62;66.85;99423.66;82012;1294;3011355;-67
2023/04/07 00:18:18;;;;;;;15.00;8.50;;;;;;;6.65;67.11;99427.88;80791;1298;3052051;-69
2023/04/07 00:20:44;;;;;;;14.70;7.30;;;;;;;6.56;66.42;99430.38;82036;1294;3017965;-70
2023/04/07 00:23:11;;;;;;;14.80;7.10;;;;;;;6.61;66.72;99421.46;82031;1294;3011323;-70
2023/04/07 00:25:39;;;;;;;13.70;5.90;;;;;;;6.57;66.37;99424.57;80770;1295;3026172;-71
2023/04/07 00:28:05;;;;;;;12.50;6.10;;;;;;;6.56;66.59;99419.21;82051;1296;3012798;-72
2023/04/07 00:30:38;;;;;;;11.00;6.00;;;;;;;6.51;65.83;99422.76;80741;1294;3049258;-69
2023/04/07 00:33:05;;;;;;;13.40;5.80;;;;;;;6.38;66.13;99417.06;81952;1298;3013530;-68
2023/04/07 00:35:31;;;;;;;12.40;6.00;;;;;;;6.39;65.94;99417.35;82031;1298;3011298;-71
2023/04/07 00:37:59;;;;;;;10.90;5.90;;;;;;;6.45;65.99;99414.84;80754;1295;3051392;-69
2023/04/07 00:40:26;;;;;;;11.80;6.10;;;;;;;6.37;66.05;99417.11;82066;1295;3013253;-68
2023/04/07 00:42:52;;;;;;;12.00;7.00;;;;;;;6.28;66.24;99414.58;82046;1295;3011381;-70
2023/04/07 00:45:20;;;;;;;16.40;8.30;;;;;;;6.17;66.68;99415.70;80760;1295;3025249;-72
2023/04/07 00:47:47;;;;;;;12.90;7.20;;;;;;;6.19;66.93;99417.88;82064;1295;3018218;-67
2023/04/07 00:50:13;;;;;;;21.80;8.20;;;;;;;6.12;66.66;99416.98;82097;1295;3011350;-70
2023/04/07 00:52:41;;;;;;;17.00;8.50;;;;;;;6.23;66.76;99417.38;80811;1295;3026003;-69
2023/04/07 00:55:10;;;;;;;13.00;6.80;;;;;;;6.22;66.55;99417.40;82066;1295;3011127;-69
2023/04/07 00:57:39;;;;;;;9.60;5.90;;;;;;;6.19;66.33;99424.84;81542;1295;3011300;-68
2023/04/07 01:00:09;;;;;;;10.20;6.40;;;;;;;6.18;66.48;99418.29;81938;1295;3011264;-70
2023/04/07 01:02:44;;;;;;;8.40;5.60;;;;;;;6.14;66.95;99417.77;80657;1295;3049099;-69
2023/04/07 01:05:16;;;;;;;9.30;6.00;;;;;;;6.16;67.15;99423.41;82012;1295;3011557;-69
2023/04/07 01:08:08;;;;;;;8.20;5.30;;;;;;;6.06;67.09;99422.78;80658;1301;3052430;-71
2023/04/07 01:10:47;;;;;;;10.20;5.20;;;;;;;5.85;67.68;99424.33;80698;1295;3068271;-68
2023/04/07 01:13:24;;;;;;;8.60;5.30;;;;;;;5.94;68.10;99421.05;80666;1298;3051453;-68
2023/04/07 01:15:57;;;;;;;7.60;5.00;;;;;;;5.92;68.27;99416.77;80735;1295;3056656;-68
2023/04/07 01:18:30;;;;;;;7.40;4.70;;;;;;;6.01;68.19;99415.35;81900;1295;3010818;-69
2023/04/07 01:21:10;;;;;;;8.80;4.60;;;;;;;6.08;68.25;99414.67;80657;1295;3053804;-71
2023/04/07 01:24:03;;;;;;;7.00;3.90;;;;;;;5.99;68.46;99415.27;80643;1295;3048796;-69
2023/04/07 01:26:34;;;;;;;6.50;3.90;;;;;;;5.95;68.54;99412.83;80772;1298;3053238;-72
2023/04/07 01:29:18;;;;;;;6.20;4.10;;;;;;;5.88;68.83;99415.16;81915;1298;3011333;-65
2023/04/07 01:31:47;;;;;;;6.00;3.50;;;;;;;5.80;68.75;99409.78;80671;1295;3068416;-71
2023/04/07 01:34:14;;;;;;;7.40;4.00;;;;;;;5.74;69.42;99411.09;81947;1295;3018885;-69
2023/04/07 01:36:42;;;;;;;6.40;3.70;;;;;;;5.81;69.56;99414.95;81954;1295;3011164;-71
2023/04/07 01:39:10;;;;;;;6.70;4.00;;;;;;;5.78;69.30;99425.48;80702;1296;3053227;-72
2023/04/07 01:41:38;;;;;;;4.80;3.60;;;;;;;5.87;69.40;99423.37;81972;1301;3013309;-71
2023/04/07 01:44:05;;;;;;;7.20;4.00;;;;;;;5.96;69.31;99421.46;81961;1299;3011538;-70
2023/04/07 01:46:34;;;;;;;5.70;4.00;;;;;;;5.94;69.21;99420.52;80806;1295;3068331;-66
2023/04/07 01:49:00;;;;;;;9.90;4.40;;;;;;;6.01;69.09;99421.63;82076;1295;3013245;-67
2023/04/07 01:51:28;;;;;;;7.90;4.30;;;;;;;5.99;69.19;99422.02;81890;1294;3011501;-70
2023/04/07 01:53:56;;;;;;;5.90;4.30;;;;;;;6.00;69.13;99422.72;80810;1295;3025931;-66
2023/04/07 01:56:23;;;;;;;6.60;4.50;;;;;;;5.87;69.25;99423.23;81941;1302;3018299;-71
2023/04/07 01:58:51;;;;;;;7.00;4.40;;;;;;;5.91;69.52;99422.70;81984;1300;3011236;-70
2023/04/07 02:01:21;;;;;;;7.20;4.40;;;;;;;5.89;69.57;99425.56;80735;1295;3069683;-67
2023/04/07 02:04:03;;;;;;;6.20;4.50;;;;;;;6.01;69.48;99424.03;82006;1296;3012417;-68
2023/04/07 02:06:32;;;;;;;7.90;4.30;;;;;;;6.11;69.20;99420.17;80698;1296;3049123;-66
2023/04/07 02:09:03;;;;;;;7.80;4.90;;;;;;;6.12;69.00;99416.98;81834;1302;3011286;-71
2023/04/07 02:11:32;;;;;;;6.10;4.60;;;;;;;6.09;69.19;99420.59;80613;1301;3048976;-70
2023/04/07 02:14:01;;;;;;;8.70;5.10;;;;;;;6.11;69.08;99417.22;81909;1295;3011424;-69
2023/04/07 02:16:31;;;;;;;8.90;5.00;;;;;;;6.07;69.43;99421.71;80631;1298;3051415;-69
2023/04/07 02:18:58;;;;;;;11.10;6.20;;;;;;;6.06;69.34;99420.38;81927;1298;3013012;-70
2023/04/07 02:21:26;;;;;;;7.30;5.10;;;;;;;6.00;69.48;99421.66;81946;1301;3011287;-67
2023/04/07 02:23:53;;;;;;;8.10;4.90;;;;;;;6.15;69.27;99417.90;80693;1295;3048783;-69
2023/04/07 02:26:20;;;;;;;7.60;4.80;;;;;;;6.08;69.24;99420.45;81894;1301;3012649;-70
2023/04/07 02:28:46;;;;;;;8.30;5.10;;;;;;;6.12;69.45;99419.09;81987;1296;3011474;-69
2023/04/07 02:31:15;;;;;;;7.70;5.60;;;;;;;6.06;69.54;99418.27;80736;1298;3026251;-69
2023/04/07 02:33:42;;;;;;;9.00;5.60;;;;;;;6.02;69.80;99422.98;82032;1298;3012509;-65
2023/04/07 02:36:09;;;;;;;10.10;5.90;;;;;;;6.02;69.78;99420.89;81970;1297;3011189;-67
2023/04/07 02:38:40;;;;;;;7.80;5.20;;;;;;;5.85;70.15;99422.78;80771;1295;3048682;-68
2023/04/07 02:41:07;;;;;;;8.40;4.90;;;;;;;5.79;70.28;99418.67;82008;1295;3018092;-69
2023/04/07 02:43:34;;;;;;;8.40;5.20;;;;;;;5.82;70.29;99415.25;81967;1299;3011455;-68
2023/04/07 02:46:02;;;;;;;7.50;4.20;;;;;;;5.87;70.42;99416.09;80729;1298;3026079;-69
2023/04/07 02:48:30;;;;;;;8.00;4.90;;;;;;;5.87;70.47;99417.65;81919;1301;3011325;-69
2023/04/07 02:50:57;;;;;;;7.50;4.40;;;;;;;5.83;70.40;99419.05;81948;1295;3011165;-67
2023/04/07 02:53:34;;;;;;;7.90;4.30;;;;;;;5.82;70.31;99410.05;80747;1295;3049284;-67
2023/04/07 02:56:00;;;;;;;8.10;4.40;;;;;;;5.77;70.71;99417.19;81971;1296;3013118;-71
2023/04/07 02:58:27;;;;;;;5.70;3.90;;;;;;;5.82;70.79;99415.79;81903;1295;3011378;-69
2023/04/07 03:00:55;;;;;;;7.60;4.10;;;;;;;5.90;70.63;99418.59;80727;1298;3026066;-69
2023/04/07 03:03:26;;;;;;;6.80;4.30;;;;;;;5.97;70.50;99424.89;81961;1301;3011514;-69
2023/04/07 03:06:03;;;;;;;8.10;4.20;;;;;;;5.95;70.67;99419.23;80694;1295;3050631;-69
2023/04/07 03:08:31;;;;;;;7.30;4.60;;;;;;;5.81;71.12;99419.83;81958;1296;3013110;-71
2023/04/07 03:11:04;;;;;;;8.80;4.60;;;;;;;5.83;71.37;99419.04;80742;1296;3052707;-70
2023/04/07 03:13:31;;;;;;;7.60;4.40;;;;;;;5.89;71.28;99419.13;81960;1301;3018301;-71
2023/04/07 03:16:07;;;;;;;6.40;4.30;;;;;;;5.80;71.47;99422.64;80766;1300;3051767;-67
2023/04/07 03:18:44;;;;;;;9.00;4.40;;;;;;;5.75;71.86;99425.30;80760;1295;3069093;-69
2023/04/07 03:21:11;;;;;;;6.60;4.30;;;;;;;5.85;71.90;99413.72;81988;1295;3012786;-68
2023/04/07 03:23:42;;;;;;;4.90;4.10;;;;;;;5.89;71.96;99419.98;80692;1295;3049781;-68
2023/04/07 03:26:09;;;;;;;6.50;4.50;;;;;;;5.84;72.02;99428.56;81933;1299;3012426;-66
2023/04/07 03:28:36;;;;;;;7.20;4.90;;;;;;;5.84;72.18;99427.17;81953;1296;3011437;-69
2023/04/07 03:31:06;;;;;;;6.70;4.60;;;;;;;5.86;72.29;99421.70;80734;1301;3050868;-65
2023/04/07 03:33:32;;;;;;;7.80;5.00;;;;;;;5.91;72.43;99423.04;82016;1295;3012584;-68
2023/04/07 03:35:59;;;;;;;6.80;5.10;;;;;;;5.90;72.27;99426.04;81960;1298;3011324;-65
2023/04/07 03:38:27;;;;;;;8.60;5.50;;;;;;;5.83;72.72;99425.98;80719;1296;3025935;-70
2023/04/07 03:40:57;;;;;;;7.90;5.30;;;;;;;5.86;72.80;99429.15;81939;1295;3011265;-70
2023/04/07 03:43:26;;;;;;;8.80;5.50;;;;;;;5.94;72.72;99428.48;80724;1295;3027247;-66
2023/04/07 03:45:53;;;;;;;9.00;5.20;;;;;;;5.98;72.65;99430.23;82048;1295;3018801;-68
2023/04/07 03:48:20;;;;;;;8.40;5.60;;;;;;;5.96;72.56;99438.67;81936;1298;3011430;-68
2023/04/07 03:50:57;;;;;;;7.90;5.60;;;;;;;5.86;72.67;99440.29;80709;1301;3051432;-70
2023/04/07 03:53:26;;;;;;;11.40;5.40;;;;;;;5.77;73.35;99444.50;82020;1294;3011286;-66
2023/04/07 03:55:55;;;;;;;7.00;5.30;;;;;;;5.89;73.34;99446.77;81429;1295;3011388;-65
2023/04/07 03:58:41;;;;;;;7.00;4.90;;;;;;;5.85;73.48;99442.38;80710;1295;3052358;-65
2023/04/07 04:01:10;;;;;;;10.00;5.40;;;;;;;5.87;73.54;99443.54;81933;1295;3011652;-69
2023/04/07 04:03:39;;;;;;;7.90;5.50;;;;;;;5.89;73.67;99445.73;81430;1298;3011182;-66
2023/04/07 04:06:18;;;;;;;9.60;5.00;;;;;;;5.90;73.59;99443.94;80674;1298;3051035;-71
2023/04/07 04:08:46;;;;;;;7.90;5.30;;;;;;;6.03;73.37;99440.46;81954;1297;3013211;-69
2023/04/07 04:11:13;;;;;;;6.00;4.80;;;;;;;6.04;73.10;99437.99;82050;1295;3011372;-67
2023/04/07 04:13:55;;;;;;;5.90;4.40;;;;;;;5.99;73.40;99439.43;80746;1295;3049505;-68
2023/04/07 04:16:21;;;;;;;7.30;5.40;;;;;;;5.94;73.36;99443.42;81936;1295;3013533;-68
2023/04/07 04:18:49;;;;;;;10.40;5.90;;;;;;;5.98;73.38;99448.68;81961;1295;3011395;-69
2023/04/07 04:21:26;;;;;;;7.20;5.40;;;;;;;5.96;73.41;99448.91;80749;1298;3051002;-71
2023/04/07 04:23:52;;;;;;;8.50;5.50;;;;;;;5.86;73.60;99456.27;82012;1296;3013264;-68
2023/04/07 04:26:24;;;;;;;7.80;5.60;;;;;;;5.89;73.65;99458.23;81956;1295;3011170;-68
2023/04/07 04:28:56;;;;;;;10.50;5.70;;;;;;;5.89;73.92;99457.36;80683;1295;3049612;-67
2023/04/07 04:31:24;;;;;;;5.40;4.20;;;;;;;5.90;73.89;99460.30;81988;1295;3013965;-68
2023/04/07 04:33:51;;;;;;;5.40;3.50;;;;;;;6.42;72.74;99462.46;81945;1295;3011168;-71
2023/04/07 04:36:19;;;;;;;8.90;4.40;;;;;;;6.94;70.23;99460.17;80708;1298;3052866;-70
2023/04/07 04:38:46;;;;;;;10.80;5.60;;;;;;;7.21;69.34;99457.20;81962;1298;3012621;-68
2023/04/07 04:41:21;;;;;;;9.10;5.50;;;;;;;7.07;69.39;99466.38;80759;1295;3055770;-68
2023/04/07 04:47:00;;;;;;;6.70;5.70;;;;;;;6.71;70.42;99456.52;80139;1301;3014784;-70
2023/04/07 04:49:27;;;;;;;9.40;5.90;;;;;;;6.58;70.59;99460.23;79221;1300;3013949;-67
2023/04/07 04:51:55;;;;;;;7.30;5.50;;;;;;;6.49;70.84;99453.10;79260;1304;3011638;-69
2023/04/07 04:54:23;;;;;;;11.10;6.10;;;;;;;6.35;71.34;99455.65;78056;1304;3052901;-68
2023/04/07 04:56:49;;;;;;;8.30;5.80;;;;;;;6.21;71.87;99458.50;79224;1305;3018605;-67
2023/04/07 04:59:17;;;;;;;8.30;5.70;;;;;;;6.18;71.86;99455.99;77589;1303;3011785;-68
2023/04/07 05:01:55;;;;;;;8.10;5.60;;;;;;;6.13;72.22;99458.15;78230;1302;3050158;-73
2023/04/07 05:04:21;;;;;;;7.80;5.30;;;;;;;6.07;72.68;99455.95;79443;1300;3013289;-67
2023/04/07 05:06:56;;;;;;;9.00;6.10;;;;;;;6.03;72.90;99452.67;78289;1300;3052984;-70
2023/04/07 05:09:26;;;;;;;8.50;5.70;;;;;;;5.99;73.18;99456.28;79467;1302;3011678;-67
2023/04/07 05:11:54;;;;;;;9.60;6.20;;;;;;;6.06;73.29;99454.47;78131;1297;3028489;-65
2023/04/07 05:14:22;;;;;;;8.00;5.90;;;;;;;6.09;73.11;99459.36;79486;1298;3013200;-69
2023/04/07 05:16:58;;;;;;;9.80;6.10;;;;;;;6.01;73.20;99457.41;78284;1296;3049511;-68
2023/04/07 05:19:28;;;;;;;11.10;6.20;;;;;;;5.88;73.61;99461.58;79421;1302;3012646;-69
2023/04/07 05:21:58;;;;;;;8.50;5.90;;;;;;;5.93;73.56;99465.55;78424;1298;3048750;-68
2023/04/07 05:24:27;;;;;;;12.40;5.80;;;;;;;5.93;73.24;99468.84;79633;1298;3011893;-69
2023/04/07 05:26:57;;;;;;;10.10;5.00;;;;;;;5.91;73.11;99472.06;78179;1302;3051939;-68
2023/04/07 05:29:25;;;;;;;8.80;5.30;;;;;;;5.88;72.90;99473.77;79439;1298;3013198;-70
2023/04/07 05:31:52;;;;;;;6.50;4.80;;;;;;;5.82;73.17;99476.64;79401;1302;3011606;-65
2023/04/07 05:34:21;;;;;;;12.60;5.40;;;;;;;5.73;73.63;99477.16;78146;1301;3048786;-67
2023/04/07 05:36:50;;;;;;;7.20;4.90;;;;;;;5.84;73.56;99469.73;79550;1298;3011924;-67
2023/04/07 05:39:20;;;;;;;3.10;2.10;;;;;;;5.92;73.40;99473.63;78870;1304;3011841;-69
2023/04/07 05:41:47;;;;;;;3.50;2.40;;;;;;;6.48;72.09;99474.20;79338;1303;3013474;-67
2023/04/07 05:44:14;;;;;;;6.00;3.20;;;;;;;7.09;69.84;99470.79;79295;1303;3013790;-70
2023/04/07 05:46:43;;;;;;;4.40;3.10;;;;;;;7.01;69.63;99476.38;78229;1300;3050404;-68
2023/04/07 05:49:10;;;;;;;6.90;3.60;;;;;;;6.78;70.31;99479.71;79435;1300;3015506;-69
2023/04/07 05:51:38;;;;;;;5.80;3.60;;;;;;;6.47;71.29;99474.42;79417;1298;3011454;-68
2023/04/07 05:54:09;;;;;;;6.20;4.30;;;;;;;6.45;71.82;99473.48;78020;1303;3050187;-68
2023/04/07 05:56:36;;;;;;;6.00;3.50;;;;;;;6.56;71.96;99471.59;79630;1300;3012480;-67
2023/04/07 05:59:02;;;;;;;6.80;4.50;;;;;;;6.41;72.25;99483.23;79403;1301;3011512;-69
2023/04/07 06:01:33;;;;;;;8.10;4.80;;;;;;;6.30;72.95;99485.27;78134;1297;3049892;-68
2023/04/07 06:04:00;;;;;;;6.70;4.40;;;;;;;6.30;73.32;99488.94;79359;1297;3012710;-68
2023/04/07 06:06:27;;;;;;;9.30;5.00;;;;;;;6.20;73.85;99489.36;79512;1297;3013058;-70
2023/04/07 06:09:01;;;;;;;11.20;4.70;;;;;;;6.34;74.16;99485.27;78194;1300;3050039;-70
2023/04/07 06:11:28;;;;;;;7.50;4.80;;;;;;;6.48;73.37;99485.88;79435;1300;3012942;-68
2023/04/07 06:13:54;;;;;;;6.90;4.90;;;;;;;6.34;74.21;99484.23;79407;1301;3013076;-69
2023/04/07 06:16:25;;;;;;;9.80;5.10;;;;;;;6.26;74.89;99488.58;78192;1300;3051036;-69
2023/04/07 06:18:52;;;;;;;4.00;2.80;;;;;;;6.34;75.24;99484.04;79430;1299;3012901;-70
2023/04/07 06:21:18;;;;;;;6.00;3.50;;;;;;;7.09;73.80;99496.03;79376;1300;3011609;-70
2023/04/07 06:23:49;;;;;;;8.30;3.30;;;;;;;7.38;72.01;99501.71;78179;1302;3050184;-72
2023/04/07 06:26:16;;;;;;;8.70;4.40;;;;;;;7.36;71.85;99498.99;79404;1302;3018450;-70
2023/04/07 06:28:43;;;;;;;10.10;5.50;;;;;;;7.16;72.45;99499.04;79269;1303;3013689;-70
2023/04/07 06:31:11;;;;;;;10.60;5.30;;;;;;;7.09;73.02;99505.11;78274;1300;3026081;-71
2023/04/07 06:33:39;;;;;;;7.90;5.40;;;;;;;7.03;73.40;99500.34;79406;1296;3013284;-69
2023/04/07 06:36:06;;;;;;;14.10;6.60;;;;;;;6.87;73.91;99510.81;79396;1301;3011585;-71
2023/04/07 06:38:36;;;;;;;8.10;5.40;;;;;;;6.79;74.86;99504.56;78268;1300;3049938;-68
2023/04/07 06:41:02;;;;;;;8.60;5.70;;;;;;;6.74;75.36;99503.20;79382;1311;3012846;-67
2023/04/07 06:43:30;;;;;;;11.60;6.10;;;;;;;6.87;75.44;99507.52;79416;1300;3011512;-66
2023/04/07 06:46:02;;;;;;;9.90;6.20;;;;;;;6.91;75.57;99511.02;78214;1296;3050197;-68
2023/04/07 06:48:29;;;;;;;9.30;6.20;;;;;;;6.96;75.83;99509.03;79581;1297;3013646;-72
2023/04/07 06:50:56;;;;;;;8.20;4.00;;;;;;;7.07;75.27;99508.86;79512;1300;3011346;-69
2023/04/07 06:53:24;;;;;;;10.30;4.40;;;;;;;7.43;74.56;99503.39;78196;1301;3026513;-68
2023/04/07 06:56:14;;;;;;;11.40;5.30;;;;;;;7.88;72.91;99503.48;79483;1300;3011642;-67
2023/04/07 06:58:42;;;;;;;9.40;5.10;;;;;;;8.28;71.92;99502.58;78369;1300;3052198;-71
2023/04/07 07:01:11;;;;;;;11.70;6.10;;;;;;;8.18;71.64;99503.77;79451;1300;3011870;-70
2023/04/07 07:03:41;;;;;;;11.90;6.20;;;;;;;8.00;72.09;99504.31;78165;1300;3051105;-68
2023/04/07 07:06:08;;;;;;;13.50;7.20;;;;;;;7.71;73.19;99504.83;79534;1299;3018307;-71
2023/04/07 07:08:35;;;;;;;11.60;7.20;;;;;;;7.48;73.74;99504.36;79530;1297;3013887;-70
2023/04/07 07:11:03;;;;;;;11.80;7.00;;;;;;;7.25;74.79;99503.69;78162;1300;3025820;-68
2023/04/07 07:13:30;;;;;;;10.70;6.10;;;;;;;7.26;74.99;99507.98;79422;1300;3013089;-70
2023/04/07 07:15:57;;;;;;;10.90;6.80;;;;;;;7.25;74.98;99513.44;79406;1300;3011663;-68
2023/04/07 07:18:24;;;;;;;11.70;6.90;;;;;;;7.24;75.45;99515.77;78124;1298;3050344;-71
2023/04/07 07:20:51;;;;;;;13.90;7.40;;;;;;;7.11;75.52;99513.91;79438;1297;3013716;-68
2023/04/07 07:23:17;;;;;;;12.50;6.90;;;;;;;7.21;75.85;99510.84;79325;1298;3011650;-66
2023/04/07 07:25:47;;;;;;;8.60;4.70;;;;;;;7.37;75.33;99502.77;78182;1297;3050448;-65
2023/04/07 07:28:15;;;;;;;8.30;4.50;;;;;;;7.96;73.74;99505.05;79403;1311;3013614;-66
2023/04/07 07:30:41;;;;;;;11.60;5.40;;;;;;;8.41;71.69;99502.64;79507;1300;3011744;-67
2023/04/07 07:33:10;;;;;;;12.90;6.50;;;;;;;8.44;71.25;99501.92;78083;1303;3051185;-66
2023/04/07 07:35:36;;;;;;;14.40;6.60;;;;;;;8.31;71.62;99499.98;79556;1298;3012856;-70
2023/04/07 07:38:03;;;;;;;11.90;6.70;;;;;;;8.02;72.21;99511.19;79360;1300;3013258;-68
2023/04/07 07:40:31;;;;;;;12.90;7.70;;;;;;;7.64;73.05;99511.98;78098;1297;3025424;-67
2023/04/07 07:42:59;;;;;;;11.90;6.70;;;;;;;7.36;74.27;99512.41;79546;1300;3013696;-68
2023/04/07 07:45:26;;;;;;;13.90;7.60;;;;;;;7.22;75.06;99516.04;79417;1300;3013661;-69
2023/04/07 07:47:54;;;;;;;18.00;7.20;;;;;;;7.27;75.63;99508.64;78242;1300;3050713;-71
2023/04/07 07:50:21;;;;;;;12.80;6.90;;;;;;;7.39;75.43;99510.70;79421;1300;3018506;-67
2023/04/07 07:52:48;;;;;;;14.40;6.80;;;;;;;7.29;75.88;99513.08;79307;1297;3011385;-68
2023/04/07 07:55:23;;;;;;;16.40;7.70;;;;;;;7.02;77.14;99517.80;78225;1302;3050038;-69
2023/04/07 07:57:50;;;;;;;13.70;7.10;;;;;;;6.85;78.01;99518.71;79403;1300;3019305;-68
2023/04/07 08:00:16;;;;;;;11.50;4.00;;;;;;;6.88;78.45;99514.42;79389;1298;3013283;-68
2023/04/07 08:02:46;;;;;;;9.50;5.10;;;;;;;7.67;76.56;99515.15;78205;1299;3050507;-67
2023/04/07 08:05:13;;;;;;;11.00;5.00;;;;;;;8.34;73.88;99511.01;79368;1297;3013011;-69
2023/04/07 08:07:41;;;;;;;8.60;5.20;;;;;;;8.20;73.55;99522.54;79363;1298;3011824;-69
2023/04/07 08:10:09;;;;;;;10.70;5.90;;;;;;;7.89;74.20;99523.35;78217;1300;3050987;-69
2023/04/07 08:12:42;;;;;;;12.30;5.90;;;;;;;7.77;74.76;99523.56;79425;1298;3011937;-68
2023/04/07 08:15:10;;;;;;;11.60;7.00;;;;;;;7.66;74.77;99526.52;78212;1300;3053133;-69
2023/04/07 08:17:37;;;;;;;10.90;6.00;;;;;;;7.44;76.06;99526.52;79437;1300;3011932;-70
2023/04/07 08:20:05;;;;;;;13.30;6.10;;;;;;;7.31;76.07;99526.73;79333;1298;3011604;-69
2023/04/07 08:22:34;;;;;;;12.40;6.40;;;;;;;7.37;76.50;99521.45;78208;1297;3049308;-68
2023/04/07 08:25:01;;;;;;;13.80;6.80;;;;;;;7.36;77.11;99521.30;79551;1300;3011894;-69
2023/04/07 08:27:29;;;;;;;11.80;6.80;;;;;;;7.41;77.31;99522.29;79593;1297;3011455;-67
2023/04/07 08:29:58;;;;;;;10.20;4.80;;;;;;;7.45;77.55;99523.17;78596;1301;3052599;-67
2023/04/07 08:32:25;;;;;;;8.10;4.60;;;;;;;8.04;76.31;99521.02;79664;1298;3011805;-70
2023/04/07 08:34:54;;;;;;;12.40;6.30;;;;;;;8.48;74.28;99523.05;79368;1298;3011286;-71
2023/04/07 08:37:22;;;;;;;15.50;5.90;;;;;;;8.55;73.70;99516.42;78249;1300;3048457;-70
2023/04/07 08:39:49;;;;;;;12.10;6.60;;;;;;;8.39;73.79;99516.85;79573;1300;3013491;-66
2023/04/07 08:42:15;;;;;;;12.30;6.90;;;;;;;8.12;74.88;99521.67;79285;1302;3012848;-67
2023/04/07 08:44:43;;;;;;;11.30;6.30;;;;;;;7.91;75.92;99524.64;78160;1297;3027246;-69
2023/04/07 08:47:10;;;;;;;12.00;6.20;;;;;;;7.73;76.94;99522.71;79459;1302;3020567;-71
2023/04/07 08:49:37;;;;;;;12.30;7.00;;;;;;;7.72;77.18;99523.11;79560;1298;3013229;-67
2023/04/07 08:52:05;;;;;;;13.70;7.00;;;;;;;7.56;78.42;99523.35;78739;1297;3026471;-65
2023/04/07 08:54:33;;;;;;;12.30;7.20;;;;;;;7.52;79.65;99513.95;79820;1297;3014273;-68
2023/04/07 08:57:00;;;;;;;10.50;4.50;;;;;;;7.41;80.95;99507.15;79593;1301;3011982;-73
2023/04/07 08:59:28;;;;;;;10.90;5.50;;;;;;;7.94;79.94;99515.05;78024;1303;3052383;-68
2023/04/07 09:01:55;;;;;;;10.60;5.20;;;;;;;8.18;78.63;99505.68;79811;1297;3013406;-67
2023/04/07 09:04:23;;;;;;;11.80;6.80;;;;;;;8.20;78.58;99497.20;79505;1298;3011637;-68
2023/04/07 09:06:52;;;;;;;11.10;6.60;;;;;;;8.07;79.20;99499.61;78341;1300;3050024;-66
2023/04/07 09:09:18;;;;;;;14.70;7.20;;;;;;;7.89;80.16;99508.02;79487;1297;3013516;-70
2023/04/07 09:11:47;;;;;;;17.20;6.90;;;;;;;7.63;81.74;99507.50;79482;1300;3012578;-66
2023/04/07 09:14:15;;;;;;;12.40;7.20;;;;;;;7.53;82.42;99504.48;78273;1303;3053078;-67
2023/04/07 09:16:41;;;;;;;11.90;6.70;;;;;;;7.39;82.71;99511.73;79456;1298;3011394;-70
2023/04/07 09:19:13;;;;;;;7.70;4.80;;;;;;;7.33;83.71;99510.85;78702;1298;3011952;-69
2023/04/07 09:21:48;;;;;;;10.80;5.70;;;;;;;7.97;82.17;99506.89;79460;1298;3018899;-67
2023/04/07 09:24:24;;;;;;;9.50;5.90;;;;;;;8.28;80.57;99503.25;78274;1297;3053397;-71
2023/04/07 09:27:11;;;;;;;13.30;7.00;;;;;;;8.27;80.91;99509.06;78263;1300;3048701;-68
2023/04/07 09:29:40;;;;;;;13.10;7.50;;;;;;;8.25;81.39;99501.52;78127;1301;3053427;-69
2023/04/07 09:32:08;;;;;;;12.50;7.80;;;;;;;8.14;81.80;99504.47;79451;1300;3012838;-67
2023/04/07 09:34:39;;;;;;;15.40;7.80;;;;;;;7.87;82.60;99509.81;79054;1296;3011731;-73
2023/04/07 09:37:08;;;;;;;12.40;7.10;;;;;;;7.56;83.93;99514.64;79470;1297;3013038;-69
2023/04/07 09:39:50;;;;;;;9.10;4.70;;;;;;;7.53;85.08;99509.89;78143;1300;3026714;-71
2023/04/07 09:42:19;;;;;;;11.80;7.10;;;;;;;8.02;83.86;99518.70;78184;1297;3048142;-69
2023/04/07 09:44:45;;;;;;;13.30;6.50;;;;;;;8.35;82.30;99507.81;79521;1298;3014761;-71
2023/04/07 09:47:12;;;;;;;12.20;6.80;;;;;;;8.62;81.69;99499.15;79318;1303;3013184;-70
2023/04/07 09:49:52;;;;;;;11.80;6.80;;;;;;;8.58;81.64;99490.63;78109;1296;3053306;-68
2023/04/07 09:52:51;;;;;;;11.50;7.00;;;;;;;8.24;81.95;99512.89;78272;1298;3068821;-70
2023/04/07 09:55:21;;;;;;;13.20;7.60;;;;;;;7.81;84.24;99515.36;78095;1296;3051695;-71
2023/04/07 09:57:51;;;;;;;14.50;8.20;;;;;;;7.75;85.19;99513.19;79455;1298;3012923;-72
2023/04/07 10:00:19;;;;;;;9.90;5.30;;;;;;;7.78;85.95;99515.48;78190;1295;3053140;-70
2023/04/07 10:02:46;;;;;;;10.10;5.80;;;;;;;8.36;84.66;99512.13;79374;1300;3012785;-67
2023/04/07 10:05:13;;;;;;;11.40;6.60;;;;;;;8.72;82.59;99517.11;79342;1300;3011493;-68
2023/04/07 10:07:41;;;;;;;12.10;7.10;;;;;;;8.88;81.82;99514.91;78116;1303;3068392;-69
2023/04/07 10:10:08;;;;;;;13.80;7.50;;;;;;;8.85;82.12;99517.85;79457;1296;3012633;-68
2023/04/07 10:12:37;;;;;;;12.20;6.80;;;;;;;8.68;82.20;99517.48;79344;1300;3011585;-71
2023/04/07 10:15:05;;;;;;;13.00;7.90;;;;;;;8.72;82.91;99514.86;78143;1300;3052022;-68
2023/04/07 10:17:35;;;;;;;14.20;8.60;;;;;;;8.55;83.35;99517.98;79339;1303;3013069;-72
2023/04/07 10:20:04;;;;;;;10.50;4.80;;;;;;;8.49;83.97;99514.64;78916;1297;3012989;-67
2023/04/07 10:22:31;;;;;;;10.60;6.30;;;;;;;9.02;83.04;99514.33;79298;1303;3013160;-71
2023/04/07 10:25:08;;;;;;;11.60;6.60;;;;;;;9.40;80.73;99519.45;79492;1296;3011821;-74
2023/04/07 10:27:49;;;;;;;15.00;8.00;;;;;;;9.33;80.27;99523.50;78252;1297;3055098;-70
2023/04/07 10:30:21;;;;;;;14.10;8.30;;;;;;;9.03;81.33;99516.38;78221;1302;3050369;-71
2023/04/07 10:32:54;;;;;;;12.00;7.90;;;;;;;9.20;81.40;99513.22;78186;1298;3054524;-67
2023/04/07 10:35:25;;;;;;;15.30;9.40;;;;;;;8.98;82.11;99509.67;79494;1303;3012904;-71
2023/04/07 10:38:06;;;;;;;14.50;9.10;;;;;;;8.78;83.13;99510.71;78237;1300;3052679;-69
2023/04/07 10:40:34;;;;;;;10.70;5.60;;;;;;;8.66;84.16;99510.48;78370;1298;3052782;-67
2023/04/07 10:43:01;;;;;;;11.10;6.70;;;;;;;9.18;82.62;99510.50;79521;1300;3013327;-66
2023/04/07 10:45:53;;;;;;;12.10;6.80;;;;;;;9.53;80.91;99506.67;79481;1299;3011647;-70
2023/04/07 10:48:21;;;;;;;12.30;7.70;;;;;;;9.84;80.05;99501.61;78180;1300;3049746;-69
2023/04/07 10:51:13;;;;;;;14.40;7.70;;;;;;;9.75;79.44;99510.50;79545;1300;3012958;-70
2023/04/07 10:54:19;;;;;;;14.80;9.20;;;;;;;9.47;80.59;99509.81;78179;1300;3051850;-70
2023/04/07 10:57:03;;;;;;;13.60;7.40;;;;;;;9.46;81.01;99511.80;78218;1299;3052570;-68
2023/04/07 10:59:31;;;;;;;16.20;8.40;;;;;;;9.28;81.85;99509.45;78457;1296;3068980;-67
2023/04/07 11:02:14;;;;;;;9.00;5.50;;;;;;;9.50;81.79;99502.80;79390;1298;3013023;-70
2023/04/07 11:04:44;;;;;;;9.90;6.10;;;;;;;10.42;78.98;99495.32;78106;1297;3049771;-71
2023/04/07 11:07:12;;;;;;;10.70;7.10;;;;;;;10.89;75.95;99494.98;79396;1297;3013493;-65
2023/04/07 11:09:41;;;;;;;13.20;7.20;;;;;;;10.92;75.62;99493.04;78935;1298;3011601;-74
2023/04/07 11:12:21;;;;;;;13.60;7.60;;;;;;;10.97;75.02;99487.98;79388;1301;3013555;-71
2023/04/07 11:14:50;;;;;;;18.50;8.80;;;;;;;10.71;75.52;99478.20;78274;1300;3071346;-69
2023/04/07 11:17:17;;;;;;;12.80;7.60;;;;;;;10.79;75.89;99482.95;79443;1296;3012999;-68
2023/04/07 11:19:51;;;;;;;13.10;8.40;;;;;;;10.76;75.77;99481.70;79391;1297;3011744;-69
2023/04/07 11:22:19;;;;;;;15.70;8.80;;;;;;;10.75;76.42;99483.52;78274;1297;3054016;-70
2023/04/07 11:24:48;;;;;;;30.00;9.30;;;;;;;10.80;75.63;99483.07;79761;1297;3011366;-75
2023/04/07 11:27:18;;;;;;;14.50;7.90;;;;;;;10.50;76.54;99476.09;79404;1312;3011622;-72
2023/04/07 11:29:44;;;;;;;11.60;5.10;;;;;;;10.37;77.73;99478.95;79409;1303;3012943;-74
2023/04/07 11:32:11;;;;;;;11.90;6.50;;;;;;;10.99;76.19;99476.81;79720;1300;3013028;-68
2023/04/07 11:34:40;;;;;;;10.30;6.80;;;;;;;11.44;73.49;99475.60;78295;1300;3056703;-70
2023/04/07 11:37:26;;;;;;;13.80;7.80;;;;;;;11.45;73.55;99478.11;79688;1297;3012777;-65